createdAt,value
2019-04-04T00:00:30.126Z,3.73
2019-04-04T00:03:01.487Z,3.81
2019-04-04T00:05:32.731Z,3.70
2019-04-04T00:08:03.972Z,3.70
2019-04-04T00:10:35.297Z,3.84
2019-04-04T00:13:06.652Z,3.60
2019-04-04T00:15:38.008Z,3.59
2019-04-04T00:18:09.343Z,3.62
2019-04-04T00:20:40.672Z,3.65
2019-04-04T00:23:12.016Z,3.40
2019-04-04T00:25:43.348Z,3.55
2019-04-04T00:28:14.959Z,3.53
2019-04-04T00:30:48.406Z,3.49
2019-04-04T00:33:20.413Z,3.37
2019-04-04T00:35:51.726Z,3.38
2019-04-04T00:38:23.075Z,3.40
2019-04-04T00:40:54.418Z,3.26
2019-04-04T00:43:25.577Z,3.12
2019-04-04T00:45:56.962Z,3.26
2019-04-04T00:48:28.297Z,3.23
2019-04-04T00:50:59.647Z,3.06
2019-04-04T00:53:31.021Z,3.07
2019-04-04T00:56:02.490Z,2.98
2019-04-04T00:58:33.851Z,2.99
2019-04-04T01:01:05.197Z,3.00
2019-04-04T01:03:36.591Z,3.05
2019-04-04T01:06:07.916Z,2.85
2019-04-04T01:08:39.301Z,2.81
2019-04-04T01:11:10.656Z,2.97
2019-04-04T01:13:42.069Z,3.00
2019-04-04T01:16:13.437Z,3.11
2019-04-04T01:18:44.744Z,3.06
2019-04-04T01:21:16.099Z,3.16
2019-04-04T01:23:47.456Z,3.09
2019-04-04T01:26:18.785Z,3.05
2019-04-04T01:28:50.196Z,3.02
2019-04-04T01:31:21.579Z,3.04
2019-04-04T01:33:52.911Z,3.06
2019-04-04T01:36:25.331Z,2.99
2019-04-04T01:38:58.103Z,2.92
2019-04-04T01:41:30.595Z,2.90
2019-04-04T01:44:05.342Z,2.98
2019-04-04T01:46:35.154Z,3.04
2019-04-04T01:49:06.529Z,3.09
2019-04-04T01:51:37.856Z,3.06
2019-04-04T01:54:09.212Z,3.18
2019-04-04T01:56:40.550Z,3.08
2019-04-04T01:59:12.256Z,2.85
2019-04-04T02:01:46.567Z,3.01
2019-04-04T02:04:17.647Z,2.96
2019-04-04T02:06:48.990Z,2.85
2019-04-04T02:09:20.420Z,2.94
2019-04-04T02:11:51.810Z,2.75
2019-04-04T02:14:23.151Z,2.99
2019-04-04T02:16:54.545Z,3.35
2019-04-04T02:19:25.916Z,3.26
2019-04-04T02:21:57.886Z,3.39
2019-04-04T02:24:31.821Z,3.44
2019-04-04T02:27:04.917Z,3.40
2019-04-04T02:29:36.395Z,3.37
2019-04-04T02:32:12.152Z,3.40
2019-04-04T02:34:43.542Z,3.54
2019-04-04T02:37:14.843Z,3.43
2019-04-04T02:39:46.821Z,3.58
2019-04-04T02:42:20.954Z,3.76
2019-04-04T02:44:51.244Z,3.61
2019-04-04T02:47:22.665Z,3.64
2019-04-04T02:49:53.949Z,3.59
2019-04-04T02:52:25.298Z,3.58
2019-04-04T02:54:58.268Z,3.78
2019-04-04T02:57:29.656Z,3.67
2019-04-04T03:00:00.954Z,3.74
2019-04-04T03:02:36.170Z,3.88
2019-04-04T03:05:06.479Z,3.83
2019-04-04T03:07:39.016Z,3.81
2019-04-04T03:10:15.143Z,3.70
2019-04-04T03:12:43.387Z,3.78
2019-04-04T03:15:14.672Z,3.81
2019-04-04T03:17:46.010Z,3.96
2019-04-04T03:20:17.668Z,3.78
2019-04-04T03:22:49.175Z,3.73
2019-04-04T03:25:20.523Z,3.64
2019-04-04T03:27:51.786Z,3.71
2019-04-04T03:30:23.169Z,3.73
2019-04-04T03:32:55.412Z,3.76
2019-04-04T03:35:28.933Z,3.75
2019-04-04T03:38:00.252Z,3.60
2019-04-04T03:40:31.548Z,3.78
2019-04-04T03:43:02.900Z,3.86
2019-04-04T03:45:34.223Z,4.01
2019-04-04T03:48:05.602Z,3.66
2019-04-04T03:50:36.890Z,3.84
2019-04-04T03:53:08.265Z,4.12
2019-04-04T03:55:39.623Z,4.12
2019-04-04T03:58:11.003Z,4.06
2019-04-04T04:00:42.431Z,4.26
2019-04-04T04:03:13.794Z,4.32
2019-04-04T04:05:45.179Z,4.40
2019-04-04T04:08:20.987Z,4.32
2019-04-04T04:10:49.634Z,4.40
2019-04-04T04:13:20.993Z,4.59
2019-04-04T04:15:52.435Z,4.59
2019-04-04T04:18:23.739Z,4.41
2019-04-04T04:20:55.104Z,4.62
2019-04-04T04:23:26.579Z,4.74
2019-04-04T04:25:57.914Z,4.82
2019-04-04T04:28:29.304Z,5.04
2019-04-04T04:31:00.685Z,4.89
2019-04-04T04:33:32.047Z,5.10
2019-04-04T04:36:03.403Z,5.51
2019-04-04T04:38:34.746Z,5.61
2019-04-04T04:41:06.129Z,5.69
2019-04-04T04:43:37.394Z,5.63
2019-04-04T04:46:08.713Z,5.67
2019-04-04T04:48:40.152Z,5.32
2019-04-04T04:51:11.997Z,5.53
2019-04-04T04:53:44.208Z,5.68
2019-04-04T04:56:17.488Z,5.24
2019-04-04T04:58:48.624Z,5.34
2019-04-04T05:01:19.971Z,5.39
2019-04-04T05:03:51.263Z,5.63
2019-04-04T05:06:22.711Z,5.71
2019-04-04T05:08:54.058Z,6.01
2019-04-04T05:11:25.420Z,6.21
2019-04-04T05:13:58.168Z,6.21
2019-04-04T05:16:29.963Z,6.27
2019-04-04T05:19:01.328Z,6.60
2019-04-04T05:21:34.541Z,6.40
2019-04-04T05:24:05.777Z,6.80
2019-04-04T05:26:38.565Z,7.04
2019-04-04T05:29:13.062Z,8.02
2019-04-04T05:31:43.395Z,7.93
2019-04-04T05:34:14.766Z,7.89
2019-04-04T05:36:47.337Z,7.96
2019-04-04T05:39:18.820Z,7.88
2019-04-04T05:41:50.138Z,7.75
2019-04-04T05:44:21.506Z,8.13
2019-04-04T05:46:52.857Z,8.69
2019-04-04T05:49:24.337Z,8.92
2019-04-04T05:51:55.743Z,7.93
2019-04-04T05:54:27.103Z,8.71
2019-04-04T05:56:58.457Z,8.86
2019-04-04T05:59:29.786Z,8.99
2019-04-04T06:02:01.143Z,9.30
2019-04-04T06:04:32.416Z,9.46
2019-04-04T06:07:04.451Z,9.37
2019-04-04T06:09:36.508Z,9.08
2019-04-04T06:12:07.841Z,9.56
2019-04-04T06:14:39.152Z,9.66
2019-04-04T06:17:10.550Z,10.03
2019-04-04T06:19:44.369Z,9.97
2019-04-04T06:22:14.870Z,9.70
2019-04-04T06:24:46.143Z,10.10
2019-04-04T06:27:17.546Z,9.87
2019-04-04T06:29:49.086Z,10.18
2019-04-04T06:32:20.564Z,10.30
2019-04-04T06:34:51.928Z,9.95
2019-04-04T06:37:23.206Z,9.95
2019-04-04T06:39:58.351Z,10.26
2019-04-04T06:42:27.587Z,10.15
2019-04-04T06:44:58.957Z,10.97
2019-04-04T06:47:32.339Z,10.70
2019-04-04T06:50:07.109Z,10.30
2019-04-04T06:52:36.314Z,10.93
2019-04-04T06:55:07.707Z,10.39
2019-04-04T06:57:39.097Z,10.94
2019-04-04T07:00:10.403Z,10.98
2019-04-04T07:02:41.782Z,11.00
2019-04-04T07:05:13.273Z,10.62
2019-04-04T07:07:44.607Z,11.15
2019-04-04T07:10:16.010Z,11.16
2019-04-04T07:12:48.913Z,11.48
2019-04-04T07:15:20.678Z,11.99
2019-04-04T07:17:52.116Z,11.62
2019-04-04T07:20:23.464Z,11.86
2019-04-04T07:22:55.940Z,11.83
2019-04-04T07:25:27.639Z,11.74
2019-04-04T07:27:59.057Z,11.75
2019-04-04T07:30:30.612Z,11.58
2019-04-04T07:33:01.988Z,11.54
2019-04-04T07:35:33.599Z,11.27
2019-04-04T07:38:05.098Z,11.63
2019-04-04T07:40:37.384Z,12.32
2019-04-04T07:43:09.164Z,12.12
2019-04-04T07:45:40.512Z,11.97
2019-04-04T07:48:12.373Z,12.31
2019-04-04T07:50:44.105Z,12.35
2019-04-04T07:53:15.549Z,12.28
2019-04-04T07:55:46.880Z,12.25
2019-04-04T07:58:18.218Z,12.21
2019-04-04T08:00:49.604Z,12.20
2019-04-04T08:03:20.963Z,12.20
2019-04-04T08:05:52.337Z,12.17
2019-04-04T08:08:25.201Z,12.26
2019-04-04T08:10:56.588Z,11.79
2019-04-04T08:13:27.939Z,12.09
2019-04-04T08:15:59.430Z,12.37
2019-04-04T08:18:30.827Z,12.45
2019-04-04T08:21:02.171Z,12.57
2019-04-04T08:23:33.564Z,12.74
2019-04-04T08:26:04.874Z,13.13
2019-04-04T08:28:36.126Z,12.76
2019-04-04T08:31:09.770Z,12.79
2019-04-04T08:33:40.548Z,12.65
2019-04-04T08:36:11.888Z,12.41
2019-04-04T08:38:43.298Z,13.17
2019-04-04T08:41:14.676Z,12.78
2019-04-04T08:43:46.008Z,12.82
2019-04-04T08:46:19.704Z,12.65
2019-04-04T08:48:51.414Z,12.44
2019-04-04T08:51:22.748Z,12.03
2019-04-04T08:53:54.113Z,12.52
2019-04-04T08:56:25.473Z,12.58
2019-04-04T08:58:56.814Z,12.74
2019-04-04T09:01:28.067Z,12.83
2019-04-04T09:03:59.274Z,13.00
2019-04-04T09:06:30.457Z,12.77
2019-04-04T09:09:01.814Z,12.77
2019-04-04T09:11:33.149Z,12.57
2019-04-04T09:14:04.342Z,12.56
2019-04-04T09:16:35.731Z,12.78
2019-04-04T09:19:07.083Z,12.32
2019-04-04T09:21:38.412Z,12.96
2019-04-04T09:24:09.856Z,12.82
2019-04-04T09:26:41.293Z,12.94
2019-04-04T09:29:12.643Z,13.64
2019-04-04T09:31:44.023Z,13.64
2019-04-04T09:34:15.383Z,12.74
2019-04-04T09:36:46.770Z,13.01
2019-04-04T09:39:19.008Z,12.67
2019-04-04T09:41:50.387Z,13.12
2019-04-04T09:44:21.850Z,13.13
2019-04-04T09:47:04.867Z,13.13
2019-04-04T09:49:27.307Z,13.39
2019-04-04T09:51:58.646Z,13.02
2019-04-04T09:54:30.010Z,13.25
2019-04-04T09:57:01.382Z,13.33
2019-04-04T09:59:32.724Z,13.99
2019-04-04T10:02:04.073Z,13.58
2019-04-04T10:04:35.465Z,13.53
2019-04-04T10:07:06.813Z,13.75
2019-04-04T10:09:38.200Z,13.02
2019-04-04T10:12:10.796Z,13.32
2019-04-04T10:14:45.404Z,12.91
2019-04-04T10:17:16.788Z,12.71
2019-04-04T10:19:48.285Z,13.22
2019-04-04T10:22:19.669Z,13.39
2019-04-04T10:24:51.024Z,13.56
2019-04-04T10:27:22.291Z,14.08
2019-04-04T10:29:53.667Z,14.16
2019-04-04T10:32:24.930Z,13.87
2019-04-04T10:34:56.273Z,14.06
2019-04-04T10:37:27.790Z,13.37
2019-04-04T10:39:59.148Z,13.28
2019-04-04T10:42:30.535Z,13.80
2019-04-04T10:45:03.103Z,12.53
2019-04-04T10:47:34.436Z,13.41
2019-04-04T10:50:09.594Z,13.75
2019-04-04T10:52:40.932Z,14.05
2019-04-04T10:55:12.377Z,13.49
2019-04-04T10:57:43.750Z,13.14
2019-04-04T11:00:15.161Z,13.30
2019-04-04T11:02:46.523Z,13.98
2019-04-04T11:05:17.850Z,14.02
2019-04-04T11:07:49.131Z,13.74
2019-04-04T11:10:20.496Z,13.26
2019-04-04T11:12:52.429Z,13.52
2019-04-04T11:15:24.131Z,13.23
2019-04-04T11:17:55.503Z,13.08
2019-04-04T11:20:26.878Z,13.56
2019-04-04T11:22:58.266Z,13.56
2019-04-04T11:25:29.645Z,13.89
2019-04-04T11:28:01.107Z,13.98
2019-04-04T11:30:32.475Z,13.71
2019-04-04T11:33:03.819Z,14.37
2019-04-04T11:35:36.131Z,13.95
2019-04-04T11:38:07.388Z,13.46
2019-04-04T11:40:38.721Z,13.74
2019-04-04T11:43:10.005Z,14.16
2019-04-04T11:45:41.340Z,14.26
2019-04-04T11:48:12.815Z,14.11
2019-04-04T11:50:44.073Z,13.29
2019-04-04T11:53:15.417Z,13.85
2019-04-04T11:55:46.777Z,13.55
2019-04-04T11:58:18.135Z,13.41
2019-04-04T12:00:54.166Z,13.80
2019-04-04T12:03:25.546Z,13.96
2019-04-04T12:05:57.037Z,14.18
2019-04-04T12:08:28.409Z,14.32
2019-04-04T12:11:00.348Z,14.77
2019-04-04T12:13:31.693Z,13.88
2019-04-04T12:16:03.043Z,14.05
2019-04-04T12:18:34.377Z,13.86
2019-04-04T12:21:05.697Z,14.00
2019-04-04T12:23:37.055Z,13.53
2019-04-04T12:26:08.370Z,13.89
2019-04-04T12:28:39.716Z,13.85
2019-04-04T12:31:11.084Z,13.51
2019-04-04T12:33:42.529Z,13.56
2019-04-04T12:36:24.128Z,13.41
2019-04-04T12:38:46.948Z,13.33
2019-04-04T12:41:18.295Z,14.28
2019-04-04T12:43:49.660Z,14.20
2019-04-04T12:46:20.999Z,14.41
2019-04-04T12:48:52.379Z,14.17
2019-04-04T12:51:23.734Z,14.31
2019-04-04T12:53:55.119Z,14.74
2019-04-04T12:56:26.546Z,14.12
2019-04-04T12:58:59.180Z,14.33
2019-04-04T13:01:30.556Z,14.02
2019-04-04T13:04:01.918Z,13.75
2019-04-04T13:06:33.296Z,13.66
2019-04-04T13:09:07.146Z,13.35
2019-04-04T13:11:38.579Z,13.33
2019-04-04T13:14:09.926Z,13.55
2019-04-04T13:16:41.290Z,13.27
2019-04-04T13:19:12.613Z,13.12
2019-04-04T13:21:43.954Z,13.20
2019-04-04T13:24:15.293Z,13.54
2019-04-04T13:26:46.681Z,13.57
2019-04-04T13:29:18.016Z,13.37
2019-04-04T13:31:49.373Z,13.29
2019-04-04T13:34:20.750Z,13.43
2019-04-04T13:36:52.844Z,13.12
2019-04-04T13:39:24.133Z,13.04
2019-04-04T13:41:55.492Z,13.15
2019-04-04T13:44:26.854Z,13.10
2019-04-04T13:46:58.218Z,12.84
2019-04-04T13:49:29.645Z,12.86
2019-04-04T13:52:01.117Z,13.13
2019-04-04T13:54:32.464Z,13.39
2019-04-04T13:57:03.876Z,13.17
2019-04-04T13:59:35.272Z,13.31
2019-04-04T14:02:06.685Z,13.02
2019-04-04T14:04:38.020Z,13.16
2019-04-04T14:07:09.387Z,13.21
2019-04-04T14:09:44.321Z,13.00
2019-04-04T14:12:14.323Z,13.17
2019-04-04T14:14:46.103Z,13.10
2019-04-04T14:17:17.485Z,13.31
2019-04-04T14:19:48.835Z,13.40
2019-04-04T14:22:20.158Z,13.39
2019-04-04T14:24:51.428Z,13.09
2019-04-04T14:27:22.883Z,12.70
2019-04-04T14:29:55.348Z,12.81
2019-04-04T14:32:27.069Z,12.74
2019-04-04T14:34:58.435Z,12.82
2019-04-04T14:37:29.695Z,12.78
2019-04-04T14:40:01.067Z,12.59
2019-04-04T14:42:32.387Z,12.62
2019-04-04T14:45:06.526Z,12.58
2019-04-04T14:47:37.710Z,12.49
2019-04-04T14:50:09.090Z,12.30
2019-04-04T14:52:40.453Z,12.19
2019-04-04T14:55:11.837Z,12.07
2019-04-04T14:57:43.249Z,12.13
2019-04-04T15:00:16.184Z,12.30
2019-04-04T15:02:47.572Z,12.18
2019-04-04T15:05:18.975Z,12.09
2019-04-04T15:07:50.325Z,12.15
2019-04-04T15:10:21.684Z,12.08
2019-04-04T15:12:53.069Z,11.92
2019-04-04T15:15:26.277Z,12.07
2019-04-04T15:17:57.616Z,11.84
2019-04-04T15:20:29.333Z,11.74
2019-04-04T15:23:00.685Z,11.61
2019-04-04T15:25:32.040Z,11.70
2019-04-04T15:28:03.330Z,11.61
2019-04-04T15:30:34.661Z,11.61
2019-04-04T15:33:06.026Z,11.47
2019-04-04T15:35:37.374Z,11.53
2019-04-04T15:38:08.728Z,11.46
2019-04-04T15:40:40.101Z,11.36
2019-04-04T15:43:11.560Z,11.40
2019-04-04T15:45:42.945Z,11.22
2019-04-04T15:48:14.392Z,11.19
2019-04-04T15:50:45.794Z,11.11
2019-04-04T15:53:19.448Z,11.05
2019-04-04T15:55:50.826Z,11.07
2019-04-04T15:58:22.190Z,11.08
2019-04-04T16:00:53.549Z,10.98
2019-04-04T16:03:24.899Z,10.94
2019-04-04T16:05:56.275Z,10.80
2019-04-04T16:08:27.628Z,10.76
2019-04-04T16:10:59.981Z,10.66
2019-04-04T16:13:31.320Z,10.58
2019-04-04T16:16:02.626Z,10.39
2019-04-04T16:18:34.001Z,10.32
2019-04-04T16:21:05.397Z,10.33
2019-04-04T16:23:36.791Z,10.22
2019-04-04T16:26:08.162Z,10.18
2019-04-04T16:28:39.543Z,10.05
2019-04-04T16:31:10.888Z,10.02
2019-04-04T16:33:42.213Z,9.98
2019-04-04T16:36:13.477Z,9.73
2019-04-04T16:38:44.883Z,9.70
2019-04-04T16:41:16.342Z,9.50
2019-04-04T16:43:50.148Z,9.47
2019-04-04T16:46:21.481Z,9.42
2019-04-04T16:48:52.866Z,9.31
2019-04-04T16:51:24.199Z,9.38
2019-04-04T16:53:55.447Z,9.34
2019-04-04T16:56:26.793Z,9.31
2019-04-04T16:58:58.314Z,9.21
2019-04-04T17:01:29.863Z,9.15
2019-04-04T17:04:02.108Z,9.06
2019-04-04T17:06:33.954Z,8.90
2019-04-04T17:09:07.516Z,8.81
2019-04-04T17:11:38.957Z,8.76
2019-04-04T17:14:10.306Z,8.69
2019-04-04T17:16:41.723Z,8.65
2019-04-04T17:19:13.123Z,8.53
2019-04-04T17:21:45.155Z,8.53
2019-04-04T17:24:16.473Z,8.37
2019-04-04T17:26:51.008Z,8.36
2019-04-04T17:29:22.405Z,8.39
2019-04-04T17:31:53.846Z,8.34
2019-04-04T17:34:25.226Z,8.41
2019-04-04T17:36:56.608Z,8.27
2019-04-04T17:39:28.253Z,8.20
2019-04-04T17:41:59.765Z,8.14
2019-04-04T17:44:31.211Z,8.12
2019-04-04T17:47:03.118Z,7.95
2019-04-04T17:49:34.427Z,7.85
2019-04-04T17:52:05.870Z,7.99
2019-04-04T17:54:37.371Z,7.87
2019-04-04T17:57:08.753Z,7.75
2019-04-04T17:59:40.176Z,7.67
2019-04-04T18:02:11.655Z,7.65
2019-04-04T18:04:48.455Z,7.66
2019-04-04T18:07:16.100Z,7.60
2019-04-04T18:09:47.503Z,7.62
2019-04-04T18:12:18.955Z,7.44
2019-04-04T18:14:50.300Z,7.35
2019-04-04T18:17:21.644Z,7.40
2019-04-04T18:19:53.013Z,7.29
2019-04-04T18:22:25.943Z,7.30
2019-04-04T18:24:57.317Z,7.20
2019-04-04T18:27:28.717Z,7.21
2019-04-04T18:30:00.063Z,7.16
2019-04-04T18:32:31.417Z,7.17
2019-04-04T18:35:02.780Z,7.10
2019-04-04T18:37:34.517Z,6.93
2019-04-04T18:40:07.781Z,6.75
2019-04-04T18:42:39.131Z,6.58
2019-04-04T18:45:12.002Z,6.56
2019-04-04T18:47:43.369Z,6.74
2019-04-04T18:50:14.720Z,6.87
2019-04-04T18:52:46.151Z,6.93
2019-04-04T18:55:19.977Z,6.72
2019-04-04T18:57:50.915Z,6.67
2019-04-04T19:00:22.284Z,6.72
2019-04-04T19:02:53.737Z,6.76
2019-04-04T19:05:25.162Z,6.62
2019-04-04T19:07:56.424Z,6.67
2019-04-04T19:10:27.786Z,6.72
2019-04-04T19:13:05.119Z,6.83
2019-04-04T19:15:33.409Z,6.67
2019-04-04T19:18:04.767Z,6.76
2019-04-04T19:20:36.139Z,6.76
2019-04-04T19:23:07.524Z,6.56
2019-04-04T19:25:38.906Z,6.60
2019-04-04T19:28:10.272Z,6.74
2019-04-04T19:30:41.551Z,6.76
2019-04-04T19:33:12.918Z,6.57
2019-04-04T19:35:44.266Z,6.57
2019-04-04T19:38:15.559Z,6.44
2019-04-04T19:40:47.076Z,6.45
2019-04-04T19:43:18.674Z,6.49
2019-04-04T19:45:50.047Z,6.54
2019-04-04T19:48:21.418Z,6.48
2019-04-04T19:50:52.775Z,6.34
2019-04-04T19:53:24.150Z,6.35
2019-04-04T19:55:55.544Z,6.38
2019-04-04T19:58:27.483Z,6.21
2019-04-04T20:00:58.955Z,5.97
2019-04-04T20:03:30.849Z,6.32
2019-04-04T20:06:02.123Z,7.30
2019-04-04T20:08:33.501Z,7.49
2019-04-04T20:11:04.867Z,7.72
2019-04-04T20:13:36.229Z,7.54
2019-04-04T20:16:07.488Z,7.40
2019-04-04T20:18:38.902Z,7.57
2019-04-04T20:21:11.380Z,7.50
2019-04-04T20:23:42.737Z,7.43
2019-04-04T20:26:14.084Z,7.19
2019-04-04T20:28:45.402Z,6.98
2019-04-04T20:31:16.778Z,6.93
2019-04-04T20:34:00.606Z,6.82
2019-04-04T20:36:21.258Z,6.81
2019-04-04T20:38:52.497Z,6.74
2019-04-04T20:41:23.818Z,6.78
2019-04-04T20:43:55.183Z,6.87
2019-04-04T20:46:26.530Z,6.75
2019-04-04T20:48:57.892Z,6.50
2019-04-04T20:51:29.245Z,6.51
2019-04-04T20:54:00.613Z,6.25
2019-04-04T20:56:31.980Z,5.89
2019-04-04T20:59:03.262Z,5.68
2019-04-04T21:01:34.614Z,5.74
2019-04-04T21:04:05.954Z,5.69
2019-04-04T21:06:37.300Z,5.60
2019-04-04T21:09:08.723Z,5.69
2019-04-04T21:11:40.005Z,5.65
2019-04-04T21:14:11.512Z,5.59
2019-04-04T21:16:42.868Z,5.43
2019-04-04T21:19:14.204Z,5.39
2019-04-04T21:21:45.570Z,5.41
2019-04-04T21:24:16.934Z,5.20
2019-04-04T21:26:48.409Z,5.04
2019-04-04T21:29:19.872Z,4.60
2019-04-04T21:31:51.215Z,4.60
2019-04-04T21:34:22.600Z,4.77
2019-04-04T21:36:53.886Z,4.93
2019-04-04T21:39:25.279Z,4.75
2019-04-04T21:41:56.535Z,4.98
2019-04-04T21:44:27.818Z,5.14
2019-04-04T21:46:59.196Z,5.16
2019-04-04T21:49:30.592Z,5.04
2019-04-04T21:52:01.941Z,5.10
2019-04-04T21:54:33.304Z,5.15
2019-04-04T21:57:04.639Z,5.04
2019-04-04T21:59:35.952Z,5.13
2019-04-04T22:02:07.412Z,4.96
2019-04-04T22:04:38.740Z,4.90
2019-04-04T22:07:10.156Z,4.84
2019-04-04T22:09:41.537Z,4.71
2019-04-04T22:12:12.885Z,4.64
2019-04-04T22:14:44.210Z,4.52
2019-04-04T22:17:15.556Z,4.53
2019-04-04T22:19:46.913Z,4.65
2019-04-04T22:22:18.196Z,4.43
2019-04-04T22:24:49.548Z,4.49
2019-04-04T22:27:20.890Z,4.57
2019-04-04T22:29:52.225Z,4.05
2019-04-04T22:32:23.572Z,4.29
2019-04-04T22:34:54.936Z,4.29
2019-04-04T22:37:26.284Z,4.31
2019-04-04T22:39:57.360Z,4.15
2019-04-04T22:42:28.711Z,4.02
2019-04-04T22:45:00.072Z,4.01
2019-04-04T22:47:31.458Z,4.14
2019-04-04T22:50:02.813Z,4.18
2019-04-04T22:52:34.185Z,4.00
2019-04-04T22:55:06.542Z,4.08
2019-04-04T22:57:37.858Z,4.03
2019-04-04T23:00:09.209Z,4.10
2019-04-04T23:02:42.214Z,4.12
2019-04-04T23:05:13.484Z,3.85
2019-04-04T23:07:44.823Z,4.03
2019-04-04T23:10:16.249Z,3.94
2019-04-04T23:12:47.534Z,3.60
2019-04-04T23:15:18.816Z,3.54
2019-04-04T23:17:50.166Z,3.87
2019-04-04T23:20:21.509Z,3.87
2019-04-04T23:22:53.324Z,3.72
2019-04-04T23:25:24.129Z,3.46
2019-04-04T23:27:55.195Z,3.64
2019-04-04T23:30:26.542Z,3.70
2019-04-04T23:32:57.917Z,3.56
2019-04-04T23:35:29.278Z,3.50
2019-04-04T23:38:00.530Z,3.63
2019-04-04T23:40:32.447Z,3.58
2019-04-04T23:43:03.677Z,3.43
2019-04-04T23:45:35.139Z,3.22
2019-04-04T23:48:06.494Z,3.34
2019-04-04T23:50:37.833Z,3.51
2019-04-04T23:53:09.172Z,3.47
2019-04-04T23:55:40.518Z,3.37
2019-04-04T23:58:11.833Z,3.41
